Gloversville, New York
Current Conditions -  °F | °C
As of 1:15 PM on Sunday 25 Jan 2015 (Local Time) from KNY0 Reporting Station
Clear Clear  
Wind Chill:   Ceiling: Unl
Heat Index: 18°   Visibility: 10mi
Dew Point:   Wind: 18mph
Humidity: 48%   Direction: 270°W
Pressure: 29.78"   Gusts: 25mph
Location:  43.06°N, 74.34°W
Report Text: KNY0 251815Z AUTO 27016G22KT 10SM CLR M08/M17 A2978 RMK AO2 T10761169
Loading
Personal Weather Stations






























Interactive Weather Map New forecast layout! Learn more

10-Day Weather Forecast

Advertisements
Track Severe Weather on mobile